sensor_id;sensor_type;location;lat;lon;timestamp;P1;durP1;ratioP1;P2;durP2;ratioP2
66667;SDS011;57205;51.438;-2.006;2023-07-16T00:01:51;8.70;;;2.50;;
66667;SDS011;57205;51.438;-2.006;2023-07-16T00:04:16;8.05;;;3.22;;
66667;SDS011;57205;51.438;-2.006;2023-07-16T00:06:42;8.05;;;2.63;;
66667;SDS011;57205;51.438;-2.006;2023-07-16T00:09:07;9.63;;;2.60;;
66667;SDS011;57205;51.438;-2.006;2023-07-16T00:11:32;9.30;;;3.53;;
66667;SDS011;57205;51.438;-2.006;2023-07-16T00:13:58;10.98;;;3.15;;
66667;SDS011;57205;51.438;-2.006;2023-07-16T00:16:24;7.72;;;2.63;;
66667;SDS011;57205;51.438;-2.006;2023-07-16T00:18:49;16.33;;;2.67;;
66667;SDS011;57205;51.438;-2.006;2023-07-16T00:21:16;10.50;;;3.00;;
66667;SDS011;57205;51.438;-2.006;2023-07-16T00:23:41;17.75;;;7.10;;
66667;SDS011;57205;51.438;-2.006;2023-07-16T00:26:07;12.18;;;2.95;;
66667;SDS011;57205;51.438;-2.006;2023-07-16T00:28:32;13.68;;;3.05;;
66667;SDS011;57205;51.438;-2.006;2023-07-16T00:30:57;13.38;;;3.13;;
66667;SDS011;57205;51.438;-2.006;2023-07-16T00:33:23;9.52;;;2.53;;
66667;SDS011;57205;51.438;-2.006;2023-07-16T00:35:49;13.93;;;3.60;;
66667;SDS011;57205;51.438;-2.006;2023-07-16T00:38:19;13.60;;;3.35;;
66667;SDS011;57205;51.438;-2.006;2023-07-16T00:40:45;13.32;;;3.28;;
66667;SDS011;57205;51.438;-2.006;2023-07-16T00:43:11;15.25;;;3.40;;
66667;SDS011;57205;51.438;-2.006;2023-07-16T00:45:37;14.27;;;3.28;;
66667;SDS011;57205;51.438;-2.006;2023-07-16T00:48:04;16.58;;;3.45;;
66667;SDS011;57205;51.438;-2.006;2023-07-16T00:50:31;26.42;;;3.60;;
66667;SDS011;57205;51.438;-2.006;2023-07-16T00:53:02;17.33;;;3.67;;
66667;SDS011;57205;51.438;-2.006;2023-07-16T00:55:28;12.38;;;3.08;;
66667;SDS011;57205;51.438;-2.006;2023-07-16T00:57:55;18.02;;;3.53;;
66667;SDS011;57205;51.438;-2.006;2023-07-16T01:00:26;16.33;;;3.85;;
66667;SDS011;57205;51.438;-2.006;2023-07-16T01:02:52;19.10;;;3.65;;
66667;SDS011;57205;51.438;-2.006;2023-07-16T01:05:17;12.98;;;3.42;;
66667;SDS011;57205;51.438;-2.006;2023-07-16T01:07:46;14.70;;;3.65;;
66667;SDS011;57205;51.438;-2.006;2023-07-16T01:10:20;10.00;;;3.70;;
66667;SDS011;57205;51.438;-2.006;2023-07-16T01:12:47;17.00;;;3.80;;
66667;SDS011;57205;51.438;-2.006;2023-07-16T01:15:15;12.75;;;2.78;;
66667;SDS011;57205;51.438;-2.006;2023-07-16T01:17:41;18.35;;;4.38;;
66667;SDS011;57205;51.438;-2.006;2023-07-16T01:20:06;17.10;;;4.63;;
66667;SDS011;57205;51.438;-2.006;2023-07-16T01:22:47;17.95;;;3.58;;
66667;SDS011;57205;51.438;-2.006;2023-07-16T01:28:27;14.10;;;3.33;;
66667;SDS011;57205;51.438;-2.006;2023-07-16T01:31:19;21.85;;;3.63;;
66667;SDS011;57205;51.438;-2.006;2023-07-16T01:33:47;23.02;;;4.72;;
66667;SDS011;57205;51.438;-2.006;2023-07-16T01:36:14;19.92;;;4.57;;
66667;SDS011;57205;51.438;-2.006;2023-07-16T01:38:42;16.83;;;4.43;;
66667;SDS011;57205;51.438;-2.006;2023-07-16T01:41:10;15.95;;;3.30;;
66667;SDS011;57205;51.438;-2.006;2023-07-16T01:43:35;15.82;;;3.90;;
66667;SDS011;57205;51.438;-2.006;2023-07-16T01:46:01;18.77;;;4.55;;
66667;SDS011;57205;51.438;-2.006;2023-07-16T01:48:30;17.52;;;4.20;;
66667;SDS011;57205;51.438;-2.006;2023-07-16T01:50:58;14.63;;;4.55;;
66667;SDS011;57205;51.438;-2.006;2023-07-16T01:53:24;17.42;;;3.33;;
66667;SDS011;57205;51.438;-2.006;2023-07-16T01:55:50;21.30;;;3.90;;
66667;SDS011;57205;51.438;-2.006;2023-07-16T01:58:15;22.23;;;4.20;;
66667;SDS011;57205;51.438;-2.006;2023-07-16T02:00:40;20.80;;;3.72;;
66667;SDS011;57205;51.438;-2.006;2023-07-16T02:03:06;15.02;;;4.10;;
66667;SDS011;57205;51.438;-2.006;2023-07-16T02:05:31;15.27;;;3.55;;
66667;SDS011;57205;51.438;-2.006;2023-07-16T02:07:58;14.70;;;3.63;;
66667;SDS011;57205;51.438;-2.006;2023-07-16T02:10:23;18.23;;;3.30;;
66667;SDS011;57205;51.438;-2.006;2023-07-16T02:12:49;19.80;;;4.57;;
66667;SDS011;57205;51.438;-2.006;2023-07-16T02:15:14;13.30;;;3.58;;
66667;SDS011;57205;51.438;-2.006;2023-07-16T02:17:40;11.85;;;3.22;;
66667;SDS011;57205;51.438;-2.006;2023-07-16T02:20:06;14.23;;;4.57;;
66667;SDS011;57205;51.438;-2.006;2023-07-16T02:22:33;16.95;;;3.50;;
66667;SDS011;57205;51.438;-2.006;2023-07-16T02:25:00;20.05;;;3.80;;
66667;SDS011;57205;51.438;-2.006;2023-07-16T02:27:26;11.45;;;3.33;;
66667;SDS011;57205;51.438;-2.006;2023-07-16T02:29:54;14.55;;;3.33;;
66667;SDS011;57205;51.438;-2.006;2023-07-16T02:32:20;10.25;;;3.83;;
66667;SDS011;57205;51.438;-2.006;2023-07-16T02:34:46;10.82;;;3.20;;
66667;SDS011;57205;51.438;-2.006;2023-07-16T02:37:12;14.85;;;3.17;;
66667;SDS011;57205;51.438;-2.006;2023-07-16T02:39:38;18.08;;;3.75;;
66667;SDS011;57205;51.438;-2.006;2023-07-16T02:42:04;24.30;;;3.97;;
66667;SDS011;57205;51.438;-2.006;2023-07-16T02:44:30;14.27;;;2.88;;
66667;SDS011;57205;51.438;-2.006;2023-07-16T02:46:55;15.15;;;3.30;;
66667;SDS011;57205;51.438;-2.006;2023-07-16T02:49:21;12.18;;;3.10;;
66667;SDS011;57205;51.438;-2.006;2023-07-16T02:51:46;15.10;;;2.90;;
66667;SDS011;57205;51.438;-2.006;2023-07-16T02:54:12;13.80;;;2.97;;
66667;SDS011;57205;51.438;-2.006;2023-07-16T02:56:39;10.07;;;3.13;;
66667;SDS011;57205;51.438;-2.006;2023-07-16T02:59:04;16.23;;;4.15;;
66667;SDS011;57205;51.438;-2.006;2023-07-16T03:01:30;13.57;;;3.17;;
66667;SDS011;57205;51.438;-2.006;2023-07-16T03:03:55;18.08;;;2.97;;
66667;SDS011;57205;51.438;-2.006;2023-07-16T03:06:21;16.88;;;3.45;;
66667;SDS011;57205;51.438;-2.006;2023-07-16T03:08:46;14.90;;;3.35;;
66667;SDS011;57205;51.438;-2.006;2023-07-16T03:11:12;12.60;;;3.13;;
66667;SDS011;57205;51.438;-2.006;2023-07-16T03:13:37;14.02;;;3.00;;
66667;SDS011;57205;51.438;-2.006;2023-07-16T03:16:04;9.18;;;3.15;;
66667;SDS011;57205;51.438;-2.006;2023-07-16T03:18:30;9.48;;;2.70;;
66667;SDS011;57205;51.438;-2.006;2023-07-16T03:20:56;15.35;;;2.90;;
66667;SDS011;57205;51.438;-2.006;2023-07-16T03:23:23;13.20;;;3.22;;
66667;SDS011;57205;51.438;-2.006;2023-07-16T03:25:51;9.95;;;2.53;;
66667;SDS011;57205;51.438;-2.006;2023-07-16T03:28:16;20.05;;;3.67;;
66667;SDS011;57205;51.438;-2.006;2023-07-16T03:30:48;15.15;;;4.55;;
66667;SDS011;57205;51.438;-2.006;2023-07-16T03:33:16;15.48;;;3.28;;
66667;SDS011;57205;51.438;-2.006;2023-07-16T03:35:42;14.88;;;3.47;;
66667;SDS011;57205;51.438;-2.006;2023-07-16T03:38:09;14.25;;;3.65;;
66667;SDS011;57205;51.438;-2.006;2023-07-16T03:40:35;17.33;;;3.97;;
66667;SDS011;57205;51.438;-2.006;2023-07-16T03:43:00;21.85;;;3.45;;
66667;SDS011;57205;51.438;-2.006;2023-07-16T03:45:27;13.55;;;3.10;;
66667;SDS011;57205;51.438;-2.006;2023-07-16T03:47:53;18.00;;;3.60;;
66667;SDS011;57205;51.438;-2.006;2023-07-16T03:50:19;11.80;;;2.53;;
66667;SDS011;57205;51.438;-2.006;2023-07-16T03:52:44;14.07;;;3.03;;
66667;SDS011;57205;51.438;-2.006;2023-07-16T03:55:10;12.90;;;2.97;;
66667;SDS011;57205;51.438;-2.006;2023-07-16T03:57:36;10.57;;;3.10;;
66667;SDS011;57205;51.438;-2.006;2023-07-16T04:00:03;10.93;;;3.08;;
66667;SDS011;57205;51.438;-2.006;2023-07-16T04:02:33;16.98;;;3.05;;
66667;SDS011;57205;51.438;-2.006;2023-07-16T04:05:00;10.45;;;2.65;;
66667;SDS011;57205;51.438;-2.006;2023-07-16T04:07:25;16.75;;;3.53;;
66667;SDS011;57205;51.438;-2.006;2023-07-16T04:09:51;13.45;;;2.72;;
66667;SDS011;57205;51.438;-2.006;2023-07-16T04:12:17;12.43;;;2.92;;
66667;SDS011;57205;51.438;-2.006;2023-07-16T04:14:42;11.05;;;2.17;;
66667;SDS011;57205;51.438;-2.006;2023-07-16T04:17:08;12.25;;;3.00;;
66667;SDS011;57205;51.438;-2.006;2023-07-16T04:19:33;14.05;;;2.80;;
66667;SDS011;57205;51.438;-2.006;2023-07-16T04:21:59;13.90;;;2.70;;
66667;SDS011;57205;51.438;-2.006;2023-07-16T04:24:25;14.23;;;2.60;;
66667;SDS011;57205;51.438;-2.006;2023-07-16T04:26:52;14.60;;;2.70;;
66667;SDS011;57205;51.438;-2.006;2023-07-16T04:29:18;13.43;;;2.38;;
66667;SDS011;57205;51.438;-2.006;2023-07-16T04:31:43;14.00;;;2.70;;
66667;SDS011;57205;51.438;-2.006;2023-07-16T04:34:09;14.93;;;2.78;;
66667;SDS011;57205;51.438;-2.006;2023-07-16T04:36:34;13.25;;;2.70;;
66667;SDS011;57205;51.438;-2.006;2023-07-16T04:38:59;15.65;;;2.90;;
66667;SDS011;57205;51.438;-2.006;2023-07-16T04:41:25;12.88;;;2.78;;
66667;SDS011;57205;51.438;-2.006;2023-07-16T04:43:50;8.15;;;2.40;;
66667;SDS011;57205;51.438;-2.006;2023-07-16T04:46:16;18.35;;;3.33;;
66667;SDS011;57205;51.438;-2.006;2023-07-16T04:48:42;16.92;;;2.70;;
66667;SDS011;57205;51.438;-2.006;2023-07-16T04:51:08;17.48;;;3.03;;
66667;SDS011;57205;51.438;-2.006;2023-07-16T04:53:33;14.02;;;2.35;;
66667;SDS011;57205;51.438;-2.006;2023-07-16T04:55:58;11.35;;;2.45;;
66667;SDS011;57205;51.438;-2.006;2023-07-16T04:58:24;12.10;;;2.60;;
66667;SDS011;57205;51.438;-2.006;2023-07-16T05:00:49;8.23;;;2.15;;
66667;SDS011;57205;51.438;-2.006;2023-07-16T05:03:15;22.08;;;4.15;;
66667;SDS011;57205;51.438;-2.006;2023-07-16T05:05:40;16.65;;;3.10;;
66667;SDS011;57205;51.438;-2.006;2023-07-16T05:08:06;16.58;;;3.33;;
66667;SDS011;57205;51.438;-2.006;2023-07-16T05:10:32;16.67;;;2.85;;
66667;SDS011;57205;51.438;-2.006;2023-07-16T05:12:58;14.18;;;2.05;;
66667;SDS011;57205;51.438;-2.006;2023-07-16T05:15:24;16.50;;;3.10;;
66667;SDS011;57205;51.438;-2.006;2023-07-16T05:17:49;11.40;;;2.58;;
66667;SDS011;57205;51.438;-2.006;2023-07-16T05:20:15;9.75;;;2.60;;
66667;SDS011;57205;51.438;-2.006;2023-07-16T05:22:40;15.02;;;3.25;;
66667;SDS011;57205;51.438;-2.006;2023-07-16T05:25:06;11.88;;;2.28;;
66667;SDS011;57205;51.438;-2.006;2023-07-16T05:27:32;12.30;;;2.50;;
66667;SDS011;57205;51.438;-2.006;2023-07-16T05:29:57;12.55;;;2.60;;
66667;SDS011;57205;51.438;-2.006;2023-07-16T05:32:22;12.13;;;2.58;;
66667;SDS011;57205;51.438;-2.006;2023-07-16T05:34:48;8.82;;;2.08;;
66667;SDS011;57205;51.438;-2.006;2023-07-16T05:37:14;7.10;;;2.05;;
66667;SDS011;57205;51.438;-2.006;2023-07-16T05:39:39;9.85;;;2.22;;
66667;SDS011;57205;51.438;-2.006;2023-07-16T05:42:05;9.95;;;2.05;;
66667;SDS011;57205;51.438;-2.006;2023-07-16T05:44:31;12.48;;;2.72;;
66667;SDS011;57205;51.438;-2.006;2023-07-16T05:46:57;11.68;;;2.85;;
66667;SDS011;57205;51.438;-2.006;2023-07-16T05:49:23;9.50;;;3.60;;
66667;SDS011;57205;51.438;-2.006;2023-07-16T05:51:49;10.13;;;2.20;;
66667;SDS011;57205;51.438;-2.006;2023-07-16T05:54:14;11.27;;;2.30;;
66667;SDS011;57205;51.438;-2.006;2023-07-16T05:56:40;17.05;;;2.30;;
66667;SDS011;57205;51.438;-2.006;2023-07-16T05:59:07;13.70;;;2.80;;
66667;SDS011;57205;51.438;-2.006;2023-07-16T06:01:32;11.00;;;2.75;;
66667;SDS011;57205;51.438;-2.006;2023-07-16T06:03:58;19.85;;;3.33;;
66667;SDS011;57205;51.438;-2.006;2023-07-16T06:06:23;8.82;;;2.53;;
66667;SDS011;57205;51.438;-2.006;2023-07-16T06:08:49;9.50;;;2.20;;
66667;SDS011;57205;51.438;-2.006;2023-07-16T06:11:15;9.15;;;2.40;;
66667;SDS011;57205;51.438;-2.006;2023-07-16T06:13:41;10.20;;;2.30;;
66667;SDS011;57205;51.438;-2.006;2023-07-16T06:16:06;9.02;;;2.15;;
66667;SDS011;57205;51.438;-2.006;2023-07-16T06:18:32;9.63;;;1.77;;
66667;SDS011;57205;51.438;-2.006;2023-07-16T06:20:57;11.85;;;2.63;;
66667;SDS011;57205;51.438;-2.006;2023-07-16T06:23:23;11.10;;;2.45;;
66667;SDS011;57205;51.438;-2.006;2023-07-16T06:25:48;10.80;;;2.22;;
66667;SDS011;57205;51.438;-2.006;2023-07-16T06:28:19;11.88;;;2.30;;
66667;SDS011;57205;51.438;-2.006;2023-07-16T06:30:44;11.23;;;2.53;;
66667;SDS011;57205;51.438;-2.006;2023-07-16T06:33:09;8.07;;;2.40;;
66667;SDS011;57205;51.438;-2.006;2023-07-16T06:35:35;8.57;;;1.90;;
66667;SDS011;57205;51.438;-2.006;2023-07-16T06:38:00;6.75;;;1.63;;
66667;SDS011;57205;51.438;-2.006;2023-07-16T06:40:26;10.02;;;2.17;;
66667;SDS011;57205;51.438;-2.006;2023-07-16T06:42:53;8.15;;;2.28;;
66667;SDS011;57205;51.438;-2.006;2023-07-16T06:45:20;8.52;;;2.40;;
66667;SDS011;57205;51.438;-2.006;2023-07-16T06:47:45;13.05;;;2.40;;
66667;SDS011;57205;51.438;-2.006;2023-07-16T06:50:11;5.90;;;1.95;;
66667;SDS011;57205;51.438;-2.006;2023-07-16T06:52:36;14.13;;;2.25;;
66667;SDS011;57205;51.438;-2.006;2023-07-16T06:55:02;8.43;;;1.85;;
66667;SDS011;57205;51.438;-2.006;2023-07-16T06:57:27;5.30;;;1.42;;
66667;SDS011;57205;51.438;-2.006;2023-07-16T06:59:54;14.57;;;2.35;;
66667;SDS011;57205;51.438;-2.006;2023-07-16T07:02:19;10.98;;;2.33;;
66667;SDS011;57205;51.438;-2.006;2023-07-16T07:04:45;11.50;;;1.88;;
66667;SDS011;57205;51.438;-2.006;2023-07-16T07:07:11;12.05;;;2.47;;
66667;SDS011;57205;51.438;-2.006;2023-07-16T07:09:36;13.18;;;1.98;;
66667;SDS011;57205;51.438;-2.006;2023-07-16T07:12:02;8.82;;;2.20;;
66667;SDS011;57205;51.438;-2.006;2023-07-16T07:14:29;6.97;;;2.45;;
66667;SDS011;57205;51.438;-2.006;2023-07-16T07:16:55;8.45;;;2.20;;
66667;SDS011;57205;51.438;-2.006;2023-07-16T07:19:21;8.18;;;2.10;;
66667;SDS011;57205;51.438;-2.006;2023-07-16T07:21:46;10.23;;;2.05;;
66667;SDS011;57205;51.438;-2.006;2023-07-16T07:24:12;16.60;;;2.65;;
66667;SDS011;57205;51.438;-2.006;2023-07-16T07:26:37;11.35;;;1.85;;
66667;SDS011;57205;51.438;-2.006;2023-07-16T07:29:03;9.13;;;2.20;;
66667;SDS011;57205;51.438;-2.006;2023-07-16T07:31:29;20.77;;;2.95;;
66667;SDS011;57205;51.438;-2.006;2023-07-16T07:33:54;11.32;;;2.22;;
66667;SDS011;57205;51.438;-2.006;2023-07-16T07:36:22;10.68;;;2.22;;
66667;SDS011;57205;51.438;-2.006;2023-07-16T07:38:48;8.77;;;2.55;;
66667;SDS011;57205;51.438;-2.006;2023-07-16T07:41:13;9.52;;;2.58;;
66667;SDS011;57205;51.438;-2.006;2023-07-16T07:43:39;11.13;;;2.20;;
66667;SDS011;57205;51.438;-2.006;2023-07-16T07:46:04;8.65;;;1.67;;
66667;SDS011;57205;51.438;-2.006;2023-07-16T07:48:30;8.68;;;1.85;;
66667;SDS011;57205;51.438;-2.006;2023-07-16T07:50:56;12.02;;;3.97;;
66667;SDS011;57205;51.438;-2.006;2023-07-16T07:53:22;10.23;;;2.03;;
66667;SDS011;57205;51.438;-2.006;2023-07-16T07:55:47;7.65;;;2.15;;
66667;SDS011;57205;51.438;-2.006;2023-07-16T07:58:12;14.73;;;3.90;;
66667;SDS011;57205;51.438;-2.006;2023-07-16T08:00:39;8.85;;;2.17;;
66667;SDS011;57205;51.438;-2.006;2023-07-16T08:03:04;7.05;;;1.92;;
66667;SDS011;57205;51.438;-2.006;2023-07-16T08:05:31;8.02;;;2.33;;
66667;SDS011;57205;51.438;-2.006;2023-07-16T08:07:59;8.65;;;1.92;;
66667;SDS011;57205;51.438;-2.006;2023-07-16T08:10:24;9.45;;;2.55;;
66667;SDS011;57205;51.438;-2.006;2023-07-16T08:12:50;9.60;;;2.45;;
66667;SDS011;57205;51.438;-2.006;2023-07-16T08:15:17;10.40;;;1.80;;
66667;SDS011;57205;51.438;-2.006;2023-07-16T08:17:43;6.03;;;1.48;;
66667;SDS011;57205;51.438;-2.006;2023-07-16T08:20:11;8.05;;;1.80;;
66667;SDS011;57205;51.438;-2.006;2023-07-16T08:22:37;12.52;;;2.00;;
66667;SDS011;57205;51.438;-2.006;2023-07-16T08:25:04;8.80;;;1.73;;
66667;SDS011;57205;51.438;-2.006;2023-07-16T08:27:30;9.48;;;2.17;;
66667;SDS011;57205;51.438;-2.006;2023-07-16T08:29:56;7.78;;;2.13;;
66667;SDS011;57205;51.438;-2.006;2023-07-16T08:32:22;9.73;;;2.30;;
66667;SDS011;57205;51.438;-2.006;2023-07-16T08:34:47;11.77;;;2.30;;
66667;SDS011;57205;51.438;-2.006;2023-07-16T08:37:13;4.30;;;1.95;;
66667;SDS011;57205;51.438;-2.006;2023-07-16T08:39:39;10.80;;;2.00;;
66667;SDS011;57205;51.438;-2.006;2023-07-16T08:42:04;7.18;;;1.77;;
66667;SDS011;57205;51.438;-2.006;2023-07-16T08:44:31;6.78;;;1.70;;
66667;SDS011;57205;51.438;-2.006;2023-07-16T08:46:57;9.82;;;3.42;;
66667;SDS011;57205;51.438;-2.006;2023-07-16T08:49:23;6.03;;;1.55;;
66667;SDS011;57205;51.438;-2.006;2023-07-16T08:51:50;9.70;;;2.45;;
66667;SDS011;57205;51.438;-2.006;2023-07-16T08:54:19;12.15;;;2.65;;
66667;SDS011;57205;51.438;-2.006;2023-07-16T08:56:47;7.03;;;1.65;;
66667;SDS011;57205;51.438;-2.006;2023-07-16T08:59:16;10.00;;;2.88;;
66667;SDS011;57205;51.438;-2.006;2023-07-16T09:01:43;9.45;;;2.45;;
66667;SDS011;57205;51.438;-2.006;2023-07-16T09:04:08;6.53;;;1.63;;
66667;SDS011;57205;51.438;-2.006;2023-07-16T09:06:34;11.73;;;2.08;;
66667;SDS011;57205;51.438;-2.006;2023-07-16T09:08:59;7.93;;;1.58;;
66667;SDS011;57205;51.438;-2.006;2023-07-16T09:11:24;6.30;;;2.15;;
66667;SDS011;57205;51.438;-2.006;2023-07-16T09:13:51;8.55;;;1.42;;
66667;SDS011;57205;51.438;-2.006;2023-07-16T09:16:17;7.28;;;1.55;;
66667;SDS011;57205;51.438;-2.006;2023-07-16T09:18:43;5.18;;;1.58;;
66667;SDS011;57205;51.438;-2.006;2023-07-16T09:21:10;6.32;;;1.35;;
66667;SDS011;57205;51.438;-2.006;2023-07-16T09:23:36;6.68;;;1.52;;
66667;SDS011;57205;51.438;-2.006;2023-07-16T09:26:02;7.45;;;1.65;;
66667;SDS011;57205;51.438;-2.006;2023-07-16T09:28:31;5.70;;;1.52;;
66667;SDS011;57205;51.438;-2.006;2023-07-16T09:31:02;5.28;;;1.50;;
66667;SDS011;57205;51.438;-2.006;2023-07-16T09:33:31;5.75;;;1.42;;
66667;SDS011;57205;51.438;-2.006;2023-07-16T09:35:56;3.85;;;1.40;;
66667;SDS011;57205;51.438;-2.006;2023-07-16T09:38:22;7.13;;;1.52;;
66667;SDS011;57205;51.438;-2.006;2023-07-16T09:40:49;9.38;;;1.75;;
66667;SDS011;57205;51.438;-2.006;2023-07-16T09:43:14;7.03;;;1.75;;
66667;SDS011;57205;51.438;-2.006;2023-07-16T09:45:41;4.82;;;1.30;;
66667;SDS011;57205;51.438;-2.006;2023-07-16T09:48:07;7.97;;;1.60;;
66667;SDS011;57205;51.438;-2.006;2023-07-16T09:50:34;7.18;;;1.67;;
66667;SDS011;57205;51.438;-2.006;2023-07-16T09:53:00;6.25;;;1.70;;
66667;SDS011;57205;51.438;-2.006;2023-07-16T09:55:28;4.93;;;1.83;;
66667;SDS011;57205;51.438;-2.006;2023-07-16T09:57:57;8.30;;;1.83;;
66667;SDS011;57205;51.438;-2.006;2023-07-16T10:00:25;6.32;;;1.60;;
66667;SDS011;57205;51.438;-2.006;2023-07-16T10:02:54;5.68;;;1.52;;
66667;SDS011;57205;51.438;-2.006;2023-07-16T10:05:24;4.80;;;1.38;;
66667;SDS011;57205;51.438;-2.006;2023-07-16T10:08:00;5.05;;;1.40;;
66667;SDS011;57205;51.438;-2.006;2023-07-16T10:10:38;5.40;;;1.42;;
66667;SDS011;57205;51.438;-2.006;2023-07-16T10:13:06;7.55;;;2.15;;
66667;SDS011;57205;51.438;-2.006;2023-07-16T10:15:32;12.38;;;3.17;;
66667;SDS011;57205;51.438;-2.006;2023-07-16T10:17:57;4.88;;;1.50;;
66667;SDS011;57205;51.438;-2.006;2023-07-16T10:20:30;8.45;;;1.60;;
66667;SDS011;57205;51.438;-2.006;2023-07-16T10:23:11;9.13;;;1.50;;
66667;SDS011;57205;51.438;-2.006;2023-07-16T10:25:40;7.68;;;1.60;;
66667;SDS011;57205;51.438;-2.006;2023-07-16T10:28:06;5.38;;;1.48;;
66667;SDS011;57205;51.438;-2.006;2023-07-16T10:30:32;7.32;;;1.52;;
66667;SDS011;57205;51.438;-2.006;2023-07-16T10:33:02;5.93;;;1.75;;
66667;SDS011;57205;51.438;-2.006;2023-07-16T10:35:28;3.70;;;0.95;;
66667;SDS011;57205;51.438;-2.006;2023-07-16T10:37:54;4.35;;;1.05;;
66667;SDS011;57205;51.438;-2.006;2023-07-16T10:40:19;4.72;;;1.30;;
66667;SDS011;57205;51.438;-2.006;2023-07-16T10:42:45;4.38;;;1.00;;
66667;SDS011;57205;51.438;-2.006;2023-07-16T10:45:13;3.45;;;1.17;;
66667;SDS011;57205;51.438;-2.006;2023-07-16T10:47:50;2.28;;;0.88;;
66667;SDS011;57205;51.438;-2.006;2023-07-16T10:50:18;3.35;;;0.52;;
66667;SDS011;57205;51.438;-2.006;2023-07-16T10:52:50;7.05;;;1.63;;
66667;SDS011;57205;51.438;-2.006;2023-07-16T10:55:16;5.13;;;1.08;;
66667;SDS011;57205;51.438;-2.006;2023-07-16T10:57:43;3.15;;;0.65;;
66667;SDS011;57205;51.438;-2.006;2023-07-16T11:00:09;5.03;;;1.35;;
66667;SDS011;57205;51.438;-2.006;2023-07-16T11:02:38;4.53;;;1.55;;
66667;SDS011;57205;51.438;-2.006;2023-07-16T11:05:11;2.60;;;0.82;;
66667;SDS011;57205;51.438;-2.006;2023-07-16T11:07:43;3.53;;;1.10;;
66667;SDS011;57205;51.438;-2.006;2023-07-16T11:10:09;3.90;;;1.00;;
66667;SDS011;57205;51.438;-2.006;2023-07-16T11:12:35;2.67;;;0.80;;
66667;SDS011;57205;51.438;-2.006;2023-07-16T11:15:01;3.08;;;0.85;;
66667;SDS011;57205;51.438;-2.006;2023-07-16T11:17:26;3.08;;;1.10;;
66667;SDS011;57205;51.438;-2.006;2023-07-16T11:19:53;3.10;;;1.00;;
66667;SDS011;57205;51.438;-2.006;2023-07-16T11:22:25;4.63;;;0.80;;
66667;SDS011;57205;51.438;-2.006;2023-07-16T11:24:52;3.47;;;0.80;;
66667;SDS011;57205;51.438;-2.006;2023-07-16T11:27:21;4.35;;;0.93;;
66667;SDS011;57205;51.438;-2.006;2023-07-16T11:29:55;3.30;;;0.90;;
66667;SDS011;57205;51.438;-2.006;2023-07-16T11:34:59;2.58;;;1.08;;
66667;SDS011;57205;51.438;-2.006;2023-07-16T11:37:30;4.32;;;1.73;;
66667;SDS011;57205;51.438;-2.006;2023-07-16T11:40:07;3.75;;;1.08;;
66667;SDS011;57205;51.438;-2.006;2023-07-16T11:45:03;3.65;;;1.02;;
66667;SDS011;57205;51.438;-2.006;2023-07-16T11:47:30;5.70;;;1.30;;
66667;SDS011;57205;51.438;-2.006;2023-07-16T11:49:57;5.00;;;1.30;;
66667;SDS011;57205;51.438;-2.006;2023-07-16T11:52:27;6.80;;;1.45;;
66667;SDS011;57205;51.438;-2.006;2023-07-16T11:54:54;5.28;;;1.05;;
66667;SDS011;57205;51.438;-2.006;2023-07-16T11:57:21;3.20;;;1.02;;
66667;SDS011;57205;51.438;-2.006;2023-07-16T11:59:47;6.43;;;1.20;;
66667;SDS011;57205;51.438;-2.006;2023-07-16T12:02:13;5.95;;;1.45;;
66667;SDS011;57205;51.438;-2.006;2023-07-16T12:04:39;5.93;;;1.90;;
66667;SDS011;57205;51.438;-2.006;2023-07-16T12:07:04;5.13;;;1.95;;
66667;SDS011;57205;51.438;-2.006;2023-07-16T12:09:30;8.13;;;1.50;;
66667;SDS011;57205;51.438;-2.006;2023-07-16T12:11:56;5.57;;;1.33;;
66667;SDS011;57205;51.438;-2.006;2023-07-16T12:14:22;5.65;;;1.63;;
66667;SDS011;57205;51.438;-2.006;2023-07-16T12:16:47;6.22;;;1.73;;
66667;SDS011;57205;51.438;-2.006;2023-07-16T12:19:13;5.68;;;1.77;;
66667;SDS011;57205;51.438;-2.006;2023-07-16T12:21:38;9.82;;;1.45;;
66667;SDS011;57205;51.438;-2.006;2023-07-16T12:24:04;7.13;;;1.67;;
66667;SDS011;57205;51.438;-2.006;2023-07-16T12:26:30;8.30;;;1.60;;
66667;SDS011;57205;51.438;-2.006;2023-07-16T12:28:56;4.03;;;1.40;;
66667;SDS011;57205;51.438;-2.006;2023-07-16T12:31:21;7.35;;;1.75;;
66667;SDS011;57205;51.438;-2.006;2023-07-16T12:33:47;4.25;;;1.48;;
66667;SDS011;57205;51.438;-2.006;2023-07-16T12:36:13;4.20;;;1.13;;
66667;SDS011;57205;51.438;-2.006;2023-07-16T12:38:39;4.28;;;1.30;;
66667;SDS011;57205;51.438;-2.006;2023-07-16T12:41:05;5.45;;;1.45;;
66667;SDS011;57205;51.438;-2.006;2023-07-16T12:43:31;6.18;;;1.63;;
66667;SDS011;57205;51.438;-2.006;2023-07-16T12:46:03;5.63;;;1.65;;
66667;SDS011;57205;51.438;-2.006;2023-07-16T12:48:31;6.47;;;1.95;;
66667;SDS011;57205;51.438;-2.006;2023-07-16T12:50:57;4.82;;;1.52;;
66667;SDS011;57205;51.438;-2.006;2023-07-16T12:53:23;4.25;;;1.33;;
66667;SDS011;57205;51.438;-2.006;2023-07-16T12:55:49;7.30;;;2.10;;
66667;SDS011;57205;51.438;-2.006;2023-07-16T12:58:15;11.73;;;4.97;;
66667;SDS011;57205;51.438;-2.006;2023-07-16T13:00:40;9.20;;;1.98;;
66667;SDS011;57205;51.438;-2.006;2023-07-16T13:03:06;7.43;;;1.90;;
66667;SDS011;57205;51.438;-2.006;2023-07-16T13:05:35;4.80;;;1.02;;
66667;SDS011;57205;51.438;-2.006;2023-07-16T13:08:00;5.43;;;1.73;;
66667;SDS011;57205;51.438;-2.006;2023-07-16T13:10:26;5.28;;;1.88;;
66667;SDS011;57205;51.438;-2.006;2023-07-16T13:12:52;7.65;;;1.55;;
66667;SDS011;57205;51.438;-2.006;2023-07-16T13:15:18;7.07;;;1.52;;
66667;SDS011;57205;51.438;-2.006;2023-07-16T13:17:43;5.28;;;2.22;;
66667;SDS011;57205;51.438;-2.006;2023-07-16T13:20:09;6.55;;;1.73;;
66667;SDS011;57205;51.438;-2.006;2023-07-16T13:22:36;8.80;;;2.15;;
66667;SDS011;57205;51.438;-2.006;2023-07-16T13:25:01;6.68;;;2.20;;
66667;SDS011;57205;51.438;-2.006;2023-07-16T13:27:27;4.47;;;1.13;;
66667;SDS011;57205;51.438;-2.006;2023-07-16T13:29:52;4.03;;;1.05;;
66667;SDS011;57205;51.438;-2.006;2023-07-16T13:32:18;4.00;;;1.33;;
66667;SDS011;57205;51.438;-2.006;2023-07-16T13:34:45;2.95;;;1.13;;
66667;SDS011;57205;51.438;-2.006;2023-07-16T13:37:10;3.50;;;1.50;;
66667;SDS011;57205;51.438;-2.006;2023-07-16T13:39:36;6.55;;;1.65;;
66667;SDS011;57205;51.438;-2.006;2023-07-16T13:42:01;3.90;;;1.50;;
66667;SDS011;57205;51.438;-2.006;2023-07-16T13:44:27;4.07;;;1.63;;
66667;SDS011;57205;51.438;-2.006;2023-07-16T13:46:52;6.75;;;1.63;;
66667;SDS011;57205;51.438;-2.006;2023-07-16T13:49:18;2.83;;;0.90;;
66667;SDS011;57205;51.438;-2.006;2023-07-16T13:51:43;3.53;;;1.27;;
66667;SDS011;57205;51.438;-2.006;2023-07-16T13:54:10;4.88;;;1.10;;
66667;SDS011;57205;51.438;-2.006;2023-07-16T13:56:37;3.30;;;1.25;;
66667;SDS011;57205;51.438;-2.006;2023-07-16T13:59:02;7.55;;;1.40;;
66667;SDS011;57205;51.438;-2.006;2023-07-16T14:01:29;6.00;;;1.20;;
66667;SDS011;57205;51.438;-2.006;2023-07-16T14:03:54;3.13;;;0.90;;
66667;SDS011;57205;51.438;-2.006;2023-07-16T14:06:21;2.97;;;1.48;;
66667;SDS011;57205;51.438;-2.006;2023-07-16T14:08:47;3.13;;;0.82;;
66667;SDS011;57205;51.438;-2.006;2023-07-16T14:11:12;4.95;;;1.30;;
66667;SDS011;57205;51.438;-2.006;2023-07-16T14:13:38;4.70;;;1.38;;
66667;SDS011;57205;51.438;-2.006;2023-07-16T14:16:04;4.07;;;1.10;;
66667;SDS011;57205;51.438;-2.006;2023-07-16T14:18:29;1.95;;;0.85;;
66667;SDS011;57205;51.438;-2.006;2023-07-16T14:20:55;6.95;;;1.10;;
66667;SDS011;57205;51.438;-2.006;2023-07-16T14:23:20;3.08;;;1.00;;
66667;SDS011;57205;51.438;-2.006;2023-07-16T14:25:46;2.70;;;0.90;;
66667;SDS011;57205;51.438;-2.006;2023-07-16T14:28:11;3.35;;;1.10;;
66667;SDS011;57205;51.438;-2.006;2023-07-16T14:30:37;3.20;;;1.63;;
66667;SDS011;57205;51.438;-2.006;2023-07-16T14:33:02;3.45;;;1.52;;